الصفحة الرئيسية
METAR-TAF:

METAR-TAF

مطار :

فولغوغراد, روسيا

دائرة عرض: 48-47N, خط طول: 044-22E, ارتفاع: 145 متر

مراقبة الطقس الحالي

تاريخ ووقت الإصدار 29 دقيقة قبل الساعة 11:30UTC
ريح 8 عقدة من الجنوب/الجنوب الشرقي
درجة الحرارة 19°درجة مئوية
الرطوبة 22%
ضغط 1029 hPa
الرؤية 10 كم أو أكثر
الغيوم لا تقل 1500 م ولا وجود لمزنة ركامية السحاب الأسود

METAR: URWW 271130Z 16004MPS CAVOK 19/M03 Q1029 R06/010070 NOSIG

زمن: 14:59 (11:59 UTC)


TAF: مفقودة

أرصاد الطقس والتوقعات من أكثر من 4000 مطار (تقارير الطقس للمطار METAR والتنبؤ بالطقس بالمطارTAF).

المحطات المتاحة هي النقط الصفراء والحمراء على الخريطة.

حرك المؤشر فوق النقطة لمعرفة اسم المحطة.

ثم انقر لمعرفة أرصاد وتوقعات الطقس.

لتغيير الخارطة: اضغط على الأزرار الخضراء مع رمز الصليب الأسود للتكبير. على الزر الأخضر مع شرطة للتصغير، أو على الأسهم الخضراء للخرائط المجاورة.


METAR-TAF: